sensor_id;sensor_type;location;lat;lon;timestamp;P1;durP1;ratioP1;P2;durP2;ratioP2
5819;SDS011;2936;47.348;9.640;2022-08-03T00:01:16;8.23;;;4.10;;
5819;SDS011;2936;47.348;9.640;2022-08-03T00:03:43;6.60;;;4.43;;
5819;SDS011;2936;47.348;9.640;2022-08-03T00:06:10;5.93;;;4.50;;
5819;SDS011;2936;47.348;9.640;2022-08-03T00:08:38;5.80;;;4.03;;
5819;SDS011;2936;47.348;9.640;2022-08-03T00:11:05;4.17;;;3.70;;
5819;SDS011;2936;47.348;9.640;2022-08-03T00:13:33;4.63;;;4.10;;
5819;SDS011;2936;47.348;9.640;2022-08-03T00:16:00;4.90;;;4.07;;
5819;SDS011;2936;47.348;9.640;2022-08-03T00:18:29;5.30;;;4.80;;
5819;SDS011;2936;47.348;9.640;2022-08-03T00:20:56;4.73;;;4.23;;
5819;SDS011;2936;47.348;9.640;2022-08-03T00:23:23;4.50;;;4.10;;
5819;SDS011;2936;47.348;9.640;2022-08-03T00:25:51;5.07;;;4.70;;
5819;SDS011;2936;47.348;9.640;2022-08-03T00:28:18;5.70;;;4.07;;
5819;SDS011;2936;47.348;9.640;2022-08-03T00:30:46;4.70;;;4.27;;
5819;SDS011;2936;47.348;9.640;2022-08-03T00:33:13;5.33;;;4.83;;
5819;SDS011;2936;47.348;9.640;2022-08-03T00:35:42;5.10;;;4.67;;
5819;SDS011;2936;47.348;9.640;2022-08-03T00:38:09;8.00;;;5.13;;
5819;SDS011;2936;47.348;9.640;2022-08-03T00:40:36;5.57;;;5.10;;
5819;SDS011;2936;47.348;9.640;2022-08-03T00:43:05;5.33;;;4.90;;
5819;SDS011;2936;47.348;9.640;2022-08-03T00:45:33;5.90;;;4.57;;
5819;SDS011;2936;47.348;9.640;2022-08-03T00:48:01;5.83;;;4.97;;
5819;SDS011;2936;47.348;9.640;2022-08-03T00:50:30;5.50;;;4.33;;
5819;SDS011;2936;47.348;9.640;2022-08-03T00:53:01;7.40;;;4.80;;
5819;SDS011;2936;47.348;9.640;2022-08-03T00:55:28;4.93;;;4.50;;
5819;SDS011;2936;47.348;9.640;2022-08-03T00:57:56;5.43;;;4.97;;
5819;SDS011;2936;47.348;9.640;2022-08-03T01:00:26;6.03;;;4.53;;
5819;SDS011;2936;47.348;9.640;2022-08-03T01:02:53;5.10;;;4.60;;
5819;SDS011;2936;47.348;9.640;2022-08-03T01:05:21;6.20;;;5.47;;
5819;SDS011;2936;47.348;9.640;2022-08-03T01:07:59;4.73;;;4.33;;
5819;SDS011;2936;47.348;9.640;2022-08-03T01:10:30;5.07;;;4.67;;
5819;SDS011;2936;47.348;9.640;2022-08-03T01:13:01;9.13;;;5.37;;
5819;SDS011;2936;47.348;9.640;2022-08-03T01:15:31;4.93;;;4.47;;
5819;SDS011;2936;47.348;9.640;2022-08-03T01:18:02;5.13;;;3.50;;
5819;SDS011;2936;47.348;9.640;2022-08-03T01:20:32;4.37;;;4.17;;
5819;SDS011;2936;47.348;9.640;2022-08-03T01:23:02;5.60;;;3.73;;
5819;SDS011;2936;47.348;9.640;2022-08-03T01:25:37;4.40;;;4.00;;
5819;SDS011;2936;47.348;9.640;2022-08-03T01:28:11;5.13;;;4.57;;
5819;SDS011;2936;47.348;9.640;2022-08-03T01:30:47;5.60;;;4.87;;
5819;SDS011;2936;47.348;9.640;2022-08-03T01:33:16;4.70;;;4.30;;
5819;SDS011;2936;47.348;9.640;2022-08-03T01:35:46;4.63;;;4.20;;
5819;SDS011;2936;47.348;9.640;2022-08-03T01:38:16;5.07;;;4.73;;
5819;SDS011;2936;47.348;9.640;2022-08-03T01:40:44;4.47;;;4.17;;
5819;SDS011;2936;47.348;9.640;2022-08-03T01:43:14;5.50;;;5.00;;
5819;SDS011;2936;47.348;9.640;2022-08-03T01:45:42;4.90;;;4.50;;
5819;SDS011;2936;47.348;9.640;2022-08-03T01:48:11;6.70;;;4.73;;
5819;SDS011;2936;47.348;9.640;2022-08-03T01:50:41;6.70;;;4.73;;
5819;SDS011;2936;47.348;9.640;2022-08-03T01:53:09;4.63;;;4.20;;
5819;SDS011;2936;47.348;9.640;2022-08-03T01:55:39;4.40;;;4.10;;
5819;SDS011;2936;47.348;9.640;2022-08-03T01:58:07;5.77;;;4.50;;
5819;SDS011;2936;47.348;9.640;2022-08-03T02:00:34;4.10;;;3.80;;
5819;SDS011;2936;47.348;9.640;2022-08-03T02:03:03;5.70;;;4.60;;
5819;SDS011;2936;47.348;9.640;2022-08-03T02:05:32;4.80;;;4.30;;
5819;SDS011;2936;47.348;9.640;2022-08-03T02:08:00;5.00;;;4.63;;
5819;SDS011;2936;47.348;9.640;2022-08-03T02:10:28;6.20;;;3.80;;
5819;SDS011;2936;47.348;9.640;2022-08-03T02:12:56;4.27;;;4.07;;
5819;SDS011;2936;47.348;9.640;2022-08-03T02:15:25;4.13;;;3.93;;
5819;SDS011;2936;47.348;9.640;2022-08-03T02:17:53;7.40;;;4.27;;
5819;SDS011;2936;47.348;9.640;2022-08-03T02:20:22;4.43;;;3.90;;
5819;SDS011;2936;47.348;9.640;2022-08-03T02:22:51;4.80;;;4.40;;
5819;SDS011;2936;47.348;9.640;2022-08-03T02:25:19;6.47;;;5.20;;
5819;SDS011;2936;47.348;9.640;2022-08-03T02:27:48;6.67;;;4.33;;
5819;SDS011;2936;47.348;9.640;2022-08-03T02:30:17;8.80;;;4.43;;
5819;SDS011;2936;47.348;9.640;2022-08-03T02:32:47;6.07;;;5.47;;
5819;SDS011;2936;47.348;9.640;2022-08-03T02:35:17;5.23;;;4.73;;
5819;SDS011;2936;47.348;9.640;2022-08-03T02:37:47;7.23;;;4.90;;
5819;SDS011;2936;47.348;9.640;2022-08-03T02:40:18;8.30;;;4.80;;
5819;SDS011;2936;47.348;9.640;2022-08-03T02:42:46;6.07;;;5.20;;
5819;SDS011;2936;47.348;9.640;2022-08-03T02:45:15;5.20;;;4.80;;
5819;SDS011;2936;47.348;9.640;2022-08-03T02:47:43;5.13;;;4.73;;
5819;SDS011;2936;47.348;9.640;2022-08-03T02:50:13;4.50;;;4.20;;
5819;SDS011;2936;47.348;9.640;2022-08-03T02:52:42;4.53;;;4.23;;
5819;SDS011;2936;47.348;9.640;2022-08-03T02:55:11;5.17;;;4.87;;
5819;SDS011;2936;47.348;9.640;2022-08-03T02:57:42;9.20;;;4.30;;
5819;SDS011;2936;47.348;9.640;2022-08-03T03:00:11;4.57;;;4.27;;
5819;SDS011;2936;47.348;9.640;2022-08-03T03:02:39;4.90;;;4.50;;
5819;SDS011;2936;47.348;9.640;2022-08-03T03:05:07;4.83;;;4.53;;
5819;SDS011;2936;47.348;9.640;2022-08-03T03:07:36;6.50;;;5.23;;
5819;SDS011;2936;47.348;9.640;2022-08-03T03:10:03;4.80;;;4.40;;
5819;SDS011;2936;47.348;9.640;2022-08-03T03:12:31;4.70;;;4.40;;
5819;SDS011;2936;47.348;9.640;2022-08-03T03:15:00;5.50;;;4.73;;
5819;SDS011;2936;47.348;9.640;2022-08-03T03:17:28;5.43;;;5.03;;
5819;SDS011;2936;47.348;9.640;2022-08-03T03:19:57;5.00;;;4.60;;
5819;SDS011;2936;47.348;9.640;2022-08-03T03:22:25;5.40;;;5.00;;
5819;SDS011;2936;47.348;9.640;2022-08-03T03:24:53;10.30;;;4.60;;
5819;SDS011;2936;47.348;9.640;2022-08-03T03:27:20;9.63;;;4.87;;
5819;SDS011;2936;47.348;9.640;2022-08-03T03:29:48;7.53;;;5.27;;
5819;SDS011;2936;47.348;9.640;2022-08-03T03:32:17;10.30;;;4.53;;
5819;SDS011;2936;47.348;9.640;2022-08-03T03:34:44;5.40;;;4.97;;
5819;SDS011;2936;47.348;9.640;2022-08-03T03:37:12;5.47;;;4.93;;
5819;SDS011;2936;47.348;9.640;2022-08-03T03:39:39;6.70;;;4.77;;
5819;SDS011;2936;47.348;9.640;2022-08-03T03:42:07;5.10;;;4.67;;
5819;SDS011;2936;47.348;9.640;2022-08-03T03:44:34;5.70;;;5.20;;
5819;SDS011;2936;47.348;9.640;2022-08-03T03:47:02;7.57;;;5.03;;
5819;SDS011;2936;47.348;9.640;2022-08-03T03:49:31;7.83;;;4.90;;
5819;SDS011;2936;47.348;9.640;2022-08-03T03:51:58;5.60;;;4.97;;
5819;SDS011;2936;47.348;9.640;2022-08-03T03:54:26;5.17;;;4.80;;
5819;SDS011;2936;47.348;9.640;2022-08-03T03:56:54;8.00;;;5.83;;
5819;SDS011;2936;47.348;9.640;2022-08-03T03:59:21;5.27;;;4.87;;
5819;SDS011;2936;47.348;9.640;2022-08-03T04:01:48;8.23;;;5.33;;
5819;SDS011;2936;47.348;9.640;2022-08-03T04:04:16;5.57;;;5.10;;
5819;SDS011;2936;47.348;9.640;2022-08-03T04:07:02;5.27;;;4.87;;
5819;SDS011;2936;47.348;9.640;2022-08-03T04:09:52;5.40;;;4.90;;
5819;SDS011;2936;47.348;9.640;2022-08-03T04:12:37;7.67;;;5.10;;
5819;SDS011;2936;47.348;9.640;2022-08-03T04:15:05;6.63;;;5.13;;
5819;SDS011;2936;47.348;9.640;2022-08-03T04:17:33;5.50;;;5.00;;
5819;SDS011;2936;47.348;9.640;2022-08-03T04:20:01;7.43;;;5.50;;
5819;SDS011;2936;47.348;9.640;2022-08-03T04:22:30;8.90;;;6.00;;
5819;SDS011;2936;47.348;9.640;2022-08-03T04:25:00;7.20;;;5.97;;
5819;SDS011;2936;47.348;9.640;2022-08-03T04:27:30;11.43;;;6.70;;
5819;SDS011;2936;47.348;9.640;2022-08-03T04:29:59;7.00;;;5.30;;
5819;SDS011;2936;47.348;9.640;2022-08-03T04:32:28;5.17;;;4.80;;
5819;SDS011;2936;47.348;9.640;2022-08-03T04:34:57;6.13;;;5.40;;
5819;SDS011;2936;47.348;9.640;2022-08-03T04:37:27;10.43;;;5.33;;
5819;SDS011;2936;47.348;9.640;2022-08-03T04:39:59;5.53;;;5.00;;
5819;SDS011;2936;47.348;9.640;2022-08-03T04:42:27;8.37;;;5.90;;
5819;SDS011;2936;47.348;9.640;2022-08-03T04:44:57;7.37;;;5.67;;
5819;SDS011;2936;47.348;9.640;2022-08-03T04:47:28;5.33;;;4.93;;
5819;SDS011;2936;47.348;9.640;2022-08-03T04:49:55;4.60;;;4.30;;
5819;SDS011;2936;47.348;9.640;2022-08-03T04:52:23;7.07;;;4.80;;
5819;SDS011;2936;47.348;9.640;2022-08-03T04:54:51;7.70;;;5.40;;
5819;SDS011;2936;47.348;9.640;2022-08-03T04:57:20;5.17;;;4.67;;
5819;SDS011;2936;47.348;9.640;2022-08-03T04:59:47;4.67;;;4.37;;
5819;SDS011;2936;47.348;9.640;2022-08-03T05:02:18;5.00;;;4.50;;
5819;SDS011;2936;47.348;9.640;2022-08-03T05:04:45;6.33;;;4.37;;
5819;SDS011;2936;47.348;9.640;2022-08-03T05:07:13;7.33;;;5.00;;
5819;SDS011;2936;47.348;9.640;2022-08-03T05:09:41;8.33;;;4.90;;
5819;SDS011;2936;47.348;9.640;2022-08-03T05:12:08;5.03;;;4.53;;
5819;SDS011;2936;47.348;9.640;2022-08-03T05:14:37;8.00;;;4.77;;
5819;SDS011;2936;47.348;9.640;2022-08-03T05:17:05;5.83;;;5.10;;
5819;SDS011;2936;47.348;9.640;2022-08-03T05:19:33;4.50;;;4.20;;
5819;SDS011;2936;47.348;9.640;2022-08-03T05:22:00;5.40;;;5.00;;
5819;SDS011;2936;47.348;9.640;2022-08-03T05:24:28;5.37;;;4.40;;
5819;SDS011;2936;47.348;9.640;2022-08-03T05:26:56;4.50;;;4.10;;
5819;SDS011;2936;47.348;9.640;2022-08-03T05:29:23;5.37;;;4.90;;
5819;SDS011;2936;47.348;9.640;2022-08-03T05:31:52;4.43;;;4.13;;
5819;SDS011;2936;47.348;9.640;2022-08-03T05:34:20;7.00;;;5.10;;
5819;SDS011;2936;47.348;9.640;2022-08-03T05:36:48;16.43;;;5.53;;
5819;SDS011;2936;47.348;9.640;2022-08-03T05:39:15;8.37;;;4.60;;
5819;SDS011;2936;47.348;9.640;2022-08-03T05:41:43;12.53;;;4.67;;
5819;SDS011;2936;47.348;9.640;2022-08-03T05:44:10;6.10;;;5.03;;
5819;SDS011;2936;47.348;9.640;2022-08-03T05:46:37;7.30;;;4.87;;
5819;SDS011;2936;47.348;9.640;2022-08-03T05:49:06;5.30;;;4.90;;
5819;SDS011;2936;47.348;9.640;2022-08-03T05:51:34;5.90;;;5.40;;
5819;SDS011;2936;47.348;9.640;2022-08-03T05:54:01;12.73;;;5.70;;
5819;SDS011;2936;47.348;9.640;2022-08-03T05:56:29;6.63;;;5.60;;
5819;SDS011;2936;47.348;9.640;2022-08-03T05:58:56;5.00;;;4.60;;
5819;SDS011;2936;47.348;9.640;2022-08-03T06:01:23;12.20;;;6.20;;
5819;SDS011;2936;47.348;9.640;2022-08-03T06:03:51;11.47;;;5.27;;
5819;SDS011;2936;47.348;9.640;2022-08-03T06:06:20;5.67;;;4.57;;
5819;SDS011;2936;47.348;9.640;2022-08-03T06:08:48;5.10;;;4.60;;
5819;SDS011;2936;47.348;9.640;2022-08-03T06:11:15;9.90;;;4.83;;
5819;SDS011;2936;47.348;9.640;2022-08-03T06:13:43;6.17;;;4.30;;
5819;SDS011;2936;47.348;9.640;2022-08-03T06:16:10;6.20;;;4.57;;
5819;SDS011;2936;47.348;9.640;2022-08-03T06:18:38;6.60;;;5.20;;
5819;SDS011;2936;47.348;9.640;2022-08-03T06:21:05;4.73;;;4.40;;
5819;SDS011;2936;47.348;9.640;2022-08-03T06:23:34;23.40;;;5.50;;
5819;SDS011;2936;47.348;9.640;2022-08-03T06:26:02;17.37;;;4.53;;
5819;SDS011;2936;47.348;9.640;2022-08-03T06:28:29;7.13;;;5.30;;
5819;SDS011;2936;47.348;9.640;2022-08-03T06:30:56;6.53;;;4.80;;
5819;SDS011;2936;47.348;9.640;2022-08-03T06:33:24;5.10;;;4.43;;
5819;SDS011;2936;47.348;9.640;2022-08-03T06:35:51;4.73;;;3.97;;
5819;SDS011;2936;47.348;9.640;2022-08-03T06:38:18;8.90;;;3.70;;
5819;SDS011;2936;47.348;9.640;2022-08-03T06:40:47;4.20;;;3.90;;
5819;SDS011;2936;47.348;9.640;2022-08-03T06:43:15;7.27;;;4.20;;
5819;SDS011;2936;47.348;9.640;2022-08-03T06:45:42;4.30;;;3.73;;
5819;SDS011;2936;47.348;9.640;2022-08-03T06:48:11;4.00;;;3.70;;
5819;SDS011;2936;47.348;9.640;2022-08-03T06:50:39;3.77;;;3.43;;
5819;SDS011;2936;47.348;9.640;2022-08-03T06:53:08;4.03;;;3.73;;
5819;SDS011;2936;47.348;9.640;2022-08-03T06:55:35;5.27;;;3.17;;
5819;SDS011;2936;47.348;9.640;2022-08-03T06:58:04;3.47;;;3.27;;
5819;SDS011;2936;47.348;9.640;2022-08-03T07:00:31;3.90;;;3.30;;
5819;SDS011;2936;47.348;9.640;2022-08-03T07:02:59;10.23;;;3.63;;
5819;SDS011;2936;47.348;9.640;2022-08-03T07:05:26;4.00;;;3.60;;
5819;SDS011;2936;47.348;9.640;2022-08-03T07:07:57;9.47;;;4.33;;
5819;SDS011;2936;47.348;9.640;2022-08-03T07:10:26;4.13;;;3.87;;
5819;SDS011;2936;47.348;9.640;2022-08-03T07:12:53;3.57;;;3.40;;
5819;SDS011;2936;47.348;9.640;2022-08-03T07:15:23;3.97;;;3.57;;
5819;SDS011;2936;47.348;9.640;2022-08-03T07:17:50;3.97;;;3.57;;
5819;SDS011;2936;47.348;9.640;2022-08-03T07:20:18;3.30;;;3.10;;
5819;SDS011;2936;47.348;9.640;2022-08-03T07:22:45;4.30;;;3.60;;
5819;SDS011;2936;47.348;9.640;2022-08-03T07:25:12;4.67;;;3.70;;
5819;SDS011;2936;47.348;9.640;2022-08-03T07:27:42;5.10;;;3.60;;
5819;SDS011;2936;47.348;9.640;2022-08-03T07:30:09;4.07;;;3.50;;
5819;SDS011;2936;47.348;9.640;2022-08-03T07:32:39;3.97;;;3.67;;
5819;SDS011;2936;47.348;9.640;2022-08-03T07:35:07;3.97;;;3.67;;
5819;SDS011;2936;47.348;9.640;2022-08-03T07:37:34;4.30;;;3.90;;
5819;SDS011;2936;47.348;9.640;2022-08-03T07:40:03;5.33;;;3.27;;
5819;SDS011;2936;47.348;9.640;2022-08-03T07:42:30;3.97;;;2.90;;
5819;SDS011;2936;47.348;9.640;2022-08-03T07:44:58;6.35;;;3.40;;
5819;SDS011;2936;47.348;9.640;2022-08-03T07:47:26;6.40;;;3.73;;
5819;SDS011;2936;47.348;9.640;2022-08-03T07:49:55;7.60;;;3.63;;
5819;SDS011;2936;47.348;9.640;2022-08-03T07:52:22;5.40;;;3.00;;
5819;SDS011;2936;47.348;9.640;2022-08-03T07:55:08;3.73;;;3.43;;
5819;SDS011;2936;47.348;9.640;2022-08-03T07:57:35;4.20;;;3.40;;
5819;SDS011;2936;47.348;9.640;2022-08-03T08:00:03;8.23;;;3.80;;
5819;SDS011;2936;47.348;9.640;2022-08-03T08:02:33;3.83;;;3.47;;
5819;SDS011;2936;47.348;9.640;2022-08-03T08:05:01;4.83;;;3.47;;
5819;SDS011;2936;47.348;9.640;2022-08-03T08:07:29;4.70;;;3.53;;
5819;SDS011;2936;47.348;9.640;2022-08-03T08:09:56;8.20;;;3.63;;
5819;SDS011;2936;47.348;9.640;2022-08-03T08:12:24;3.40;;;3.10;;
5819;SDS011;2936;47.348;9.640;2022-08-03T08:14:51;4.33;;;3.40;;
5819;SDS011;2936;47.348;9.640;2022-08-03T08:17:19;6.70;;;3.20;;
5819;SDS011;2936;47.348;9.640;2022-08-03T08:19:46;3.43;;;3.13;;
5819;SDS011;2936;47.348;9.640;2022-08-03T08:22:15;3.73;;;3.30;;
5819;SDS011;2936;47.348;9.640;2022-08-03T08:24:42;6.33;;;3.10;;
5819;SDS011;2936;47.348;9.640;2022-08-03T08:27:12;3.60;;;3.30;;
5819;SDS011;2936;47.348;9.640;2022-08-03T08:29:39;4.00;;;3.70;;
5819;SDS011;2936;47.348;9.640;2022-08-03T08:32:07;3.60;;;3.40;;
5819;SDS011;2936;47.348;9.640;2022-08-03T08:34:35;5.77;;;3.40;;
5819;SDS011;2936;47.348;9.640;2022-08-03T08:37:02;5.23;;;3.43;;
5819;SDS011;2936;47.348;9.640;2022-08-03T08:39:31;3.70;;;3.20;;
5819;SDS011;2936;47.348;9.640;2022-08-03T08:41:58;3.67;;;3.47;;
5819;SDS011;2936;47.348;9.640;2022-08-03T08:44:26;3.83;;;3.60;;
5819;SDS011;2936;47.348;9.640;2022-08-03T08:46:55;4.03;;;3.63;;
5819;SDS011;2936;47.348;9.640;2022-08-03T08:49:23;3.97;;;3.67;;
5819;SDS011;2936;47.348;9.640;2022-08-03T08:51:53;4.03;;;3.60;;
5819;SDS011;2936;47.348;9.640;2022-08-03T08:54:21;10.00;;;3.57;;
5819;SDS011;2936;47.348;9.640;2022-08-03T08:56:50;5.50;;;3.10;;
5819;SDS011;2936;47.348;9.640;2022-08-03T08:59:19;3.67;;;3.30;;
5819;SDS011;2936;47.348;9.640;2022-08-03T09:01:47;6.07;;;4.50;;
5819;SDS011;2936;47.348;9.640;2022-08-03T09:04:15;5.93;;;3.30;;
5819;SDS011;2936;47.348;9.640;2022-08-03T09:06:42;3.50;;;3.30;;
5819;SDS011;2936;47.348;9.640;2022-08-03T09:09:10;3.87;;;3.67;;
5819;SDS011;2936;47.348;9.640;2022-08-03T09:11:40;3.37;;;3.10;;
5819;SDS011;2936;47.348;9.640;2022-08-03T09:14:09;3.00;;;2.80;;
5819;SDS011;2936;47.348;9.640;2022-08-03T09:16:37;9.47;;;3.60;;
5819;SDS011;2936;47.348;9.640;2022-08-03T09:19:10;5.07;;;4.57;;
5819;SDS011;2936;47.348;9.640;2022-08-03T09:21:39;10.53;;;3.97;;
5819;SDS011;2936;47.348;9.640;2022-08-03T09:24:06;3.67;;;3.37;;
5819;SDS011;2936;47.348;9.640;2022-08-03T09:26:34;5.90;;;3.20;;
5819;SDS011;2936;47.348;9.640;2022-08-03T09:29:02;10.23;;;3.70;;
5819;SDS011;2936;47.348;9.640;2022-08-03T09:31:32;7.93;;;3.90;;
5819;SDS011;2936;47.348;9.640;2022-08-03T09:34:00;3.87;;;3.57;;
5819;SDS011;2936;47.348;9.640;2022-08-03T09:36:32;5.20;;;4.03;;
5819;SDS011;2936;47.348;9.640;2022-08-03T09:39:00;12.43;;;3.80;;
5819;SDS011;2936;47.348;9.640;2022-08-03T09:41:29;3.57;;;3.27;;
5819;SDS011;2936;47.348;9.640;2022-08-03T09:43:57;3.37;;;3.17;;
5819;SDS011;2936;47.348;9.640;2022-08-03T09:46:24;3.63;;;3.33;;
5819;SDS011;2936;47.348;9.640;2022-08-03T09:49:08;5.23;;;3.13;;
5819;SDS011;2936;47.348;9.640;2022-08-03T09:51:36;3.40;;;3.20;;
5819;SDS011;2936;47.348;9.640;2022-08-03T09:54:04;6.60;;;3.30;;
5819;SDS011;2936;47.348;9.640;2022-08-03T09:56:40;4.03;;;3.73;;
5819;SDS011;2936;47.348;9.640;2022-08-03T09:59:08;6.20;;;3.20;;
5819;SDS011;2936;47.348;9.640;2022-08-03T10:01:35;3.20;;;3.00;;
5819;SDS011;2936;47.348;9.640;2022-08-03T10:04:07;3.00;;;2.80;;
5819;SDS011;2936;47.348;9.640;2022-08-03T10:06:39;3.33;;;3.10;;
5819;SDS011;2936;47.348;9.640;2022-08-03T10:09:07;3.20;;;3.00;;
5819;SDS011;2936;47.348;9.640;2022-08-03T10:11:35;4.10;;;3.00;;
5819;SDS011;2936;47.348;9.640;2022-08-03T10:14:03;2.30;;;2.20;;
5819;SDS011;2936;47.348;9.640;2022-08-03T10:16:32;4.47;;;3.60;;
5819;SDS011;2936;47.348;9.640;2022-08-03T10:18:59;3.33;;;2.90;;
5819;SDS011;2936;47.348;9.640;2022-08-03T10:21:27;3.10;;;3.00;;
5819;SDS011;2936;47.348;9.640;2022-08-03T10:23:59;2.50;;;2.40;;
5819;SDS011;2936;47.348;9.640;2022-08-03T10:26:28;4.23;;;3.43;;
5819;SDS011;2936;47.348;9.640;2022-08-03T10:28:57;2.93;;;2.80;;
5819;SDS011;2936;47.348;9.640;2022-08-03T10:31:27;4.63;;;3.13;;
5819;SDS011;2936;47.348;9.640;2022-08-03T10:33:58;3.60;;;3.40;;
5819;SDS011;2936;47.348;9.640;2022-08-03T10:36:26;3.10;;;2.90;;
5819;SDS011;2936;47.348;9.640;2022-08-03T10:39:00;3.03;;;2.90;;
5819;SDS011;2936;47.348;9.640;2022-08-03T10:41:30;3.53;;;3.33;;
5819;SDS011;2936;47.348;9.640;2022-08-03T10:44:01;3.53;;;3.23;;
5819;SDS011;2936;47.348;9.640;2022-08-03T10:46:29;7.93;;;3.60;;
5819;SDS011;2936;47.348;9.640;2022-08-03T10:48:57;3.17;;;2.97;;
5819;SDS011;2936;47.348;9.640;2022-08-03T10:51:24;11.30;;;4.70;;
5819;SDS011;2936;47.348;9.640;2022-08-03T10:53:56;3.73;;;3.40;;
5819;SDS011;2936;47.348;9.640;2022-08-03T10:56:40;6.57;;;3.43;;
5819;SDS011;2936;47.348;9.640;2022-08-03T11:02:11;3.70;;;3.40;;
5819;SDS011;2936;47.348;9.640;2022-08-03T11:04:39;4.27;;;4.03;;
5819;SDS011;2936;47.348;9.640;2022-08-03T11:07:19;3.83;;;3.53;;
5819;SDS011;2936;47.348;9.640;2022-08-03T11:09:48;5.23;;;4.03;;
5819;SDS011;2936;47.348;9.640;2022-08-03T11:12:24;5.90;;;3.57;;
5819;SDS011;2936;47.348;9.640;2022-08-03T11:14:52;4.43;;;3.43;;
5819;SDS011;2936;47.348;9.640;2022-08-03T11:17:19;6.70;;;3.90;;
5819;SDS011;2936;47.348;9.640;2022-08-03T11:19:48;7.00;;;3.67;;
5819;SDS011;2936;47.348;9.640;2022-08-03T11:22:15;5.43;;;3.57;;
5819;SDS011;2936;47.348;9.640;2022-08-03T11:24:55;3.63;;;3.33;;
5819;SDS011;2936;47.348;9.640;2022-08-03T11:27:25;3.17;;;3.00;;
5819;SDS011;2936;47.348;9.640;2022-08-03T11:29:53;5.17;;;4.17;;
5819;SDS011;2936;47.348;9.640;2022-08-03T11:35:08;11.10;;;3.40;;
5819;SDS011;2936;47.348;9.640;2022-08-03T11:37:36;3.10;;;3.00;;
5819;SDS011;2936;47.348;9.640;2022-08-03T11:40:38;4.30;;;3.70;;
5819;SDS011;2936;47.348;9.640;2022-08-03T11:43:07;3.60;;;3.30;;
5819;SDS011;2936;47.348;9.640;2022-08-03T11:45:36;4.60;;;3.70;;
5819;SDS011;2936;47.348;9.640;2022-08-03T11:48:13;9.17;;;3.40;;
5819;SDS011;2936;47.348;9.640;2022-08-03T11:50:41;7.63;;;2.97;;
5819;SDS011;2936;47.348;9.640;2022-08-03T11:53:14;3.33;;;3.13;;
5819;SDS011;2936;47.348;9.640;2022-08-03T11:55:42;3.27;;;3.10;;
5819;SDS011;2936;47.348;9.640;2022-08-03T11:58:18;4.00;;;3.70;;
5819;SDS011;2936;47.348;9.640;2022-08-03T12:00:46;3.80;;;3.40;;
5819;SDS011;2936;47.348;9.640;2022-08-03T12:03:14;5.23;;;4.00;;
5819;SDS011;2936;47.348;9.640;2022-08-03T12:05:43;3.63;;;3.37;;
5819;SDS011;2936;47.348;9.640;2022-08-03T12:08:11;3.40;;;3.20;;
5819;SDS011;2936;47.348;9.640;2022-08-03T12:10:39;3.07;;;2.87;;
5819;SDS011;2936;47.348;9.640;2022-08-03T12:13:07;3.20;;;3.00;;
5819;SDS011;2936;47.348;9.640;2022-08-03T12:15:35;3.73;;;3.40;;
5819;SDS011;2936;47.348;9.640;2022-08-03T12:18:13;2.83;;;2.63;;
5819;SDS011;2936;47.348;9.640;2022-08-03T12:20:41;5.03;;;3.10;;
5819;SDS011;2936;47.348;9.640;2022-08-03T12:23:09;2.93;;;2.83;;
5819;SDS011;2936;47.348;9.640;2022-08-03T12:25:37;3.57;;;3.37;;
5819;SDS011;2936;47.348;9.640;2022-08-03T12:28:05;3.03;;;2.93;;
5819;SDS011;2936;47.348;9.640;2022-08-03T12:30:33;2.87;;;2.57;;
5819;SDS011;2936;47.348;9.640;2022-08-03T12:33:11;2.93;;;2.53;;
5819;SDS011;2936;47.348;9.640;2022-08-03T12:35:38;3.60;;;3.13;;
5819;SDS011;2936;47.348;9.640;2022-08-03T12:38:06;2.90;;;2.80;;
5819;SDS011;2936;47.348;9.640;2022-08-03T12:40:33;3.63;;;3.10;;
5819;SDS011;2936;47.348;9.640;2022-08-03T12:43:04;4.93;;;2.80;;
5819;SDS011;2936;47.348;9.640;2022-08-03T12:45:36;3.53;;;3.00;;
5819;SDS011;2936;47.348;9.640;2022-08-03T12:48:06;2.67;;;2.57;;
5819;SDS011;2936;47.348;9.640;2022-08-03T12:50:37;2.67;;;2.53;;
5819;SDS011;2936;47.348;9.640;2022-08-03T12:53:06;5.00;;;2.70;;
5819;SDS011;2936;47.348;9.640;2022-08-03T12:55:34;3.43;;;2.57;;
5819;SDS011;2936;47.348;9.640;2022-08-03T12:58:02;3.10;;;2.90;;
5819;SDS011;2936;47.348;9.640;2022-08-03T13:00:29;2.80;;;2.60;;
5819;SDS011;2936;47.348;9.640;2022-08-03T13:02:57;3.00;;;2.80;;
5819;SDS011;2936;47.348;9.640;2022-08-03T13:05:26;2.70;;;2.60;;
5819;SDS011;2936;47.348;9.640;2022-08-03T13:07:54;9.37;;;2.77;;
5819;SDS011;2936;47.348;9.640;2022-08-03T13:10:29;5.27;;;2.90;;
5819;SDS011;2936;47.348;9.640;2022-08-03T13:12:57;2.83;;;2.63;;
5819;SDS011;2936;47.348;9.640;2022-08-03T13:15:27;3.40;;;3.10;;
5819;SDS011;2936;47.348;9.640;2022-08-03T13:17:55;2.73;;;2.53;;
5819;SDS011;2936;47.348;9.640;2022-08-03T13:20:22;2.83;;;2.73;;
5819;SDS011;2936;47.348;9.640;2022-08-03T13:22:50;4.43;;;3.33;;
5819;SDS011;2936;47.348;9.640;2022-08-03T13:25:19;4.47;;;2.93;;
5819;SDS011;2936;47.348;9.640;2022-08-03T13:27:46;2.97;;;2.77;;
5819;SDS011;2936;47.348;9.640;2022-08-03T13:30:14;2.37;;;2.27;;
5819;SDS011;2936;47.348;9.640;2022-08-03T13:32:41;2.80;;;2.60;;
5819;SDS011;2936;47.348;9.640;2022-08-03T13:35:09;2.83;;;2.73;;
5819;SDS011;2936;47.348;9.640;2022-08-03T13:37:36;3.83;;;2.80;;
5819;SDS011;2936;47.348;9.640;2022-08-03T13:40:04;3.57;;;2.30;;
5819;SDS011;2936;47.348;9.640;2022-08-03T13:42:34;3.00;;;2.80;;
5819;SDS011;2936;47.348;9.640;2022-08-03T13:45:02;4.37;;;3.17;;
5819;SDS011;2936;47.348;9.640;2022-08-03T13:47:30;4.67;;;3.00;;
5819;SDS011;2936;47.348;9.640;2022-08-03T13:49:58;3.00;;;2.80;;
5819;SDS011;2936;47.348;9.640;2022-08-03T13:52:25;2.90;;;2.70;;
5819;SDS011;2936;47.348;9.640;2022-08-03T13:54:53;2.97;;;2.87;;
5819;SDS011;2936;47.348;9.640;2022-08-03T13:57:20;2.60;;;2.50;;
5819;SDS011;2936;47.348;9.640;2022-08-03T13:59:52;2.30;;;2.20;;
5819;SDS011;2936;47.348;9.640;2022-08-03T14:02:20;2.90;;;2.80;;
5819;SDS011;2936;47.348;9.640;2022-08-03T14:04:47;2.80;;;2.60;;
5819;SDS011;2936;47.348;9.640;2022-08-03T14:07:14;2.97;;;2.77;;
5819;SDS011;2936;47.348;9.640;2022-08-03T14:09:42;2.70;;;2.53;;
5819;SDS011;2936;47.348;9.640;2022-08-03T14:12:09;5.80;;;2.73;;
5819;SDS011;2936;47.348;9.640;2022-08-03T14:14:37;2.43;;;2.23;;
5819;SDS011;2936;47.348;9.640;2022-08-03T14:17:05;2.43;;;2.33;;
5819;SDS011;2936;47.348;9.640;2022-08-03T14:19:33;4.70;;;2.80;;
5819;SDS011;2936;47.348;9.640;2022-08-03T14:22:00;3.77;;;2.47;;
5819;SDS011;2936;47.348;9.640;2022-08-03T14:24:27;5.17;;;3.00;;
5819;SDS011;2936;47.348;9.640;2022-08-03T14:26:55;2.33;;;2.23;;
5819;SDS011;2936;47.348;9.640;2022-08-03T14:29:22;9.23;;;2.73;;
5819;SDS011;2936;47.348;9.640;2022-08-03T14:31:49;3.63;;;2.63;;
5819;SDS011;2936;47.348;9.640;2022-08-03T14:34:18;2.70;;;2.50;;
5819;SDS011;2936;47.348;9.640;2022-08-03T14:36:56;2.63;;;2.53;;
5819;SDS011;2936;47.348;9.640;2022-08-03T14:39:23;3.70;;;2.97;;
5819;SDS011;2936;47.348;9.640;2022-08-03T14:41:50;4.20;;;3.00;;
5819;SDS011;2936;47.348;9.640;2022-08-03T14:44:18;2.70;;;2.50;;
5819;SDS011;2936;47.348;9.640;2022-08-03T14:46:45;2.30;;;2.20;;
5819;SDS011;2936;47.348;9.640;2022-08-03T14:49:13;3.13;;;2.60;;
5819;SDS011;2936;47.348;9.640;2022-08-03T14:51:42;2.70;;;2.60;;
5819;SDS011;2936;47.348;9.640;2022-08-03T14:54:09;3.00;;;2.73;;
5819;SDS011;2936;47.348;9.640;2022-08-03T14:56:36;3.40;;;3.20;;
5819;SDS011;2936;47.348;9.640;2022-08-03T14:59:04;3.27;;;3.00;;
5819;SDS011;2936;47.348;9.640;2022-08-03T15:01:31;3.73;;;2.70;;
5819;SDS011;2936;47.348;9.640;2022-08-03T15:03:58;3.30;;;3.00;;
5819;SDS011;2936;47.348;9.640;2022-08-03T15:06:26;3.10;;;3.00;;
5819;SDS011;2936;47.348;9.640;2022-08-03T15:08:55;3.03;;;2.73;;
5819;SDS011;2936;47.348;9.640;2022-08-03T15:11:22;3.23;;;3.03;;
5819;SDS011;2936;47.348;9.640;2022-08-03T15:13:49;3.20;;;3.00;;
5819;SDS011;2936;47.348;9.640;2022-08-03T15:16:17;3.40;;;3.20;;
5819;SDS011;2936;47.348;9.640;2022-08-03T15:18:44;2.80;;;2.60;;
5819;SDS011;2936;47.348;9.640;2022-08-03T15:21:12;3.07;;;2.87;;
5819;SDS011;2936;47.348;9.640;2022-08-03T15:23:39;7.53;;;2.93;;
5819;SDS011;2936;47.348;9.640;2022-08-03T15:26:08;3.73;;;2.90;;
5819;SDS011;2936;47.348;9.640;2022-08-03T15:28:35;3.07;;;2.87;;
5819;SDS011;2936;47.348;9.640;2022-08-03T15:31:03;3.40;;;2.90;;